createdAt,value
2018-11-23T00:00:40.079Z,33.50
2018-11-23T00:05:42.409Z,33.37
2018-11-23T00:10:59.644Z,32.83
2018-11-23T00:16:01.955Z,32.50
2018-11-23T00:21:04.625Z,33.17
2018-11-23T00:26:06.912Z,31.57
2018-11-23T00:31:09.229Z,32.63
2018-11-23T00:36:11.631Z,32.10
2018-11-23T00:41:13.984Z,31.03
2018-11-23T00:46:16.367Z,31.87
2018-11-23T00:51:18.661Z,30.17
2018-11-23T00:56:20.938Z,31.50
2018-11-23T01:01:23.228Z,31.37
2018-11-23T01:06:25.558Z,30.47
2018-11-23T01:11:27.832Z,30.00
2018-11-23T01:16:30.106Z,31.00
2018-11-23T01:21:32.482Z,30.23
2018-11-23T01:26:34.879Z,29.40
2018-11-23T01:31:37.210Z,32.17
2018-11-23T01:36:39.500Z,30.33
2018-11-23T01:41:41.786Z,30.20
2018-11-23T01:46:44.134Z,29.30
2018-11-23T01:51:46.503Z,29.30
2018-11-23T01:56:48.809Z,28.90
2018-11-23T02:01:51.209Z,29.37
2018-11-23T02:06:53.693Z,29.47
2018-11-23T02:11:55.946Z,29.33
2018-11-23T02:16:58.215Z,27.63
2018-11-23T02:22:00.537Z,28.60
2018-11-23T02:27:02.804Z,27.13
2018-11-23T02:32:05.344Z,25.37
2018-11-23T02:37:07.705Z,26.57
2018-11-23T02:42:09.976Z,25.17
2018-11-23T02:47:12.241Z,23.37
2018-11-23T02:52:15.300Z,24.10
2018-11-23T02:57:17.613Z,23.07
2018-11-23T03:02:19.892Z,22.03
2018-11-23T03:07:22.154Z,22.87
2018-11-23T03:12:24.452Z,21.40
2018-11-23T03:17:26.736Z,21.60
2018-11-23T03:22:29.172Z,22.53
2018-11-23T03:27:31.440Z,21.77
2018-11-23T03:32:33.740Z,22.47
2018-11-23T03:37:36.187Z,20.53
2018-11-23T03:42:38.570Z,21.17
2018-11-23T03:47:41.579Z,20.47
2018-11-23T03:52:44.270Z,19.90
2018-11-23T03:57:46.560Z,20.17
2018-11-23T04:02:49.476Z,20.27
2018-11-23T04:07:51.745Z,19.53
2018-11-23T04:12:54.140Z,19.30
2018-11-23T04:17:56.528Z,18.57
2018-11-23T04:22:58.911Z,18.43
2018-11-23T04:28:01.291Z,18.00
2018-11-23T04:33:04.203Z,17.47
2018-11-23T04:38:07.755Z,17.07
2018-11-23T04:43:10.050Z,16.33
2018-11-23T04:48:12.345Z,17.23
2018-11-23T04:53:14.883Z,17.63
2018-11-23T04:58:17.169Z,16.90
2018-11-23T05:03:19.552Z,17.00
2018-11-23T05:08:21.816Z,16.43
2018-11-23T05:13:24.206Z,16.87
2018-11-23T05:18:26.490Z,16.67
2018-11-23T05:23:28.806Z,16.33
2018-11-23T05:28:31.147Z,15.73
2018-11-23T05:33:33.470Z,16.10
2018-11-23T05:38:36.780Z,16.33
2018-11-23T05:43:39.076Z,15.77
2018-11-23T05:48:41.364Z,16.90
2018-11-23T05:53:43.752Z,15.87
2018-11-23T05:58:46.022Z,16.50
2018-11-23T06:03:48.296Z,17.10
2018-11-23T06:08:50.990Z,16.63
2018-11-23T06:13:53.304Z,16.10
2018-11-23T06:18:55.764Z,16.47
2018-11-23T06:23:58.096Z,16.90
2018-11-23T06:29:00.466Z,16.83
2018-11-23T06:34:02.754Z,17.47
2018-11-23T06:39:07.405Z,16.30
2018-11-23T06:44:09.736Z,17.63
2018-11-23T06:49:12.017Z,18.00
2018-11-23T06:54:14.605Z,17.47
2018-11-23T06:59:16.719Z,18.60
2018-11-23T07:04:19.029Z,18.93
2018-11-23T07:09:21.307Z,20.33
2018-11-23T07:14:23.579Z,20.03
2018-11-23T07:19:25.964Z,19.80
2018-11-23T07:24:28.394Z,20.33
2018-11-23T07:29:30.672Z,20.70
2018-11-23T07:34:32.986Z,21.90
2018-11-23T07:39:46.864Z,20.70
2018-11-23T07:44:49.200Z,21.57
2018-11-23T07:49:51.546Z,21.17
2018-11-23T07:54:53.908Z,21.83
2018-11-23T07:59:56.197Z,22.33
2018-11-23T08:04:58.487Z,21.37
2018-11-23T08:10:00.296Z,21.97
2018-11-23T08:15:02.648Z,21.43
2018-11-23T08:20:05.633Z,23.00
2018-11-23T08:25:08.908Z,22.20
2018-11-23T08:30:30.486Z,20.40
2018-11-23T08:35:32.857Z,22.20
2018-11-23T08:40:35.173Z,20.33
2018-11-23T08:45:37.461Z,21.90
2018-11-23T08:50:39.735Z,20.23
2018-11-23T08:55:42.116Z,20.43
2018-11-23T09:00:44.409Z,18.33
2018-11-23T09:05:46.697Z,18.93
2018-11-23T09:10:49.046Z,17.97
2018-11-23T09:15:51.342Z,18.10
2018-11-23T09:20:53.942Z,17.10
2018-11-23T09:25:56.287Z,18.10
2018-11-23T09:30:58.696Z,17.30
2018-11-23T09:36:00.966Z,16.70
2018-11-23T09:41:03.312Z,22.17
2018-11-23T09:46:05.998Z,19.27
2018-11-23T09:51:08.358Z,20.10
2018-11-23T09:56:10.786Z,18.80
2018-11-23T10:01:13.075Z,17.70
2018-11-23T10:06:15.356Z,18.20
2018-11-23T10:11:17.651Z,19.33
2018-11-23T10:16:20.296Z,21.73
2018-11-23T10:21:22.562Z,18.00
2018-11-23T10:26:24.923Z,17.63
2018-11-23T10:31:27.233Z,19.20
2018-11-23T10:36:29.538Z,19.30
2018-11-23T10:41:31.833Z,19.13
2018-11-23T10:46:34.145Z,19.23
2018-11-23T10:51:36.706Z,17.90
2018-11-23T10:56:39.106Z,19.73
2018-11-23T11:01:46.976Z,17.33
2018-11-23T11:06:49.931Z,18.63
2018-11-23T11:11:52.203Z,17.80
2018-11-23T11:16:54.478Z,17.97
2018-11-23T11:21:56.785Z,17.20
2018-11-23T11:26:59.377Z,18.27
2018-11-23T11:32:01.716Z,17.30
2018-11-23T11:37:04.254Z,18.27
2018-11-23T11:42:07.789Z,18.13
2018-11-23T11:47:10.244Z,17.10
2018-11-23T11:52:12.559Z,16.03
2018-11-23T11:57:15.047Z,17.13
2018-11-23T12:02:17.376Z,18.33
2018-11-23T12:07:19.642Z,17.07
2018-11-23T12:12:21.952Z,18.00
2018-11-23T12:17:24.305Z,16.37
2018-11-23T12:22:26.595Z,16.50
2018-11-23T12:27:29.500Z,16.40
2018-11-23T12:32:31.449Z,16.67
2018-11-23T12:37:33.767Z,17.77
2018-11-23T12:42:36.101Z,16.60
2018-11-23T12:47:38.637Z,17.20
2018-11-23T12:52:40.942Z,17.47
2018-11-23T12:57:43.551Z,16.73
2018-11-23T13:02:47.020Z,17.57
2018-11-23T13:07:50.106Z,17.43
2018-11-23T13:12:52.901Z,17.50
2018-11-23T13:17:55.805Z,16.93
2018-11-23T13:22:58.123Z,17.30
2018-11-23T13:28:00.681Z,17.23
2018-11-23T13:33:03.180Z,17.37
2018-11-23T13:38:05.480Z,17.07
2018-11-23T13:43:07.779Z,16.63
2018-11-23T13:48:10.075Z,17.67
2018-11-23T13:53:13.493Z,17.33
2018-11-23T13:58:15.836Z,17.60
2018-11-23T14:03:18.113Z,17.23
2018-11-23T14:08:20.557Z,16.87
2018-11-23T14:13:22.859Z,17.03
2018-11-23T14:18:25.248Z,18.40
2018-11-23T14:23:27.648Z,17.57
2018-11-23T14:28:30.029Z,17.50
2018-11-23T14:33:33.513Z,17.07
2018-11-23T14:38:36.357Z,17.03
2018-11-23T14:43:38.686Z,17.47
2018-11-23T14:48:41.168Z,18.30
2018-11-23T14:53:43.513Z,17.73
2018-11-23T14:58:46.153Z,18.50
2018-11-23T15:03:49.184Z,18.30
2018-11-23T15:08:52.061Z,20.10
2018-11-23T15:13:54.521Z,23.17
2018-11-23T15:18:56.880Z,22.30
2018-11-23T15:24:00.922Z,22.33
2018-11-23T15:29:02.594Z,22.63
2018-11-23T15:34:05.332Z,23.87
2018-11-23T15:39:09.777Z,21.20
2018-11-23T15:44:12.097Z,21.43
2018-11-23T15:49:14.484Z,23.00
2018-11-23T15:54:16.837Z,23.10
2018-11-23T15:59:20.172Z,23.93
2018-11-23T16:04:25.160Z,21.23
2018-11-23T16:09:28.219Z,21.93
2018-11-23T16:14:32.633Z,20.67
2018-11-23T16:19:35.040Z,20.10
2018-11-23T16:24:37.674Z,20.10
2018-11-23T16:29:40.118Z,21.43
2018-11-23T16:34:42.878Z,21.40
2018-11-23T16:39:45.463Z,21.23
2018-11-23T16:44:47.827Z,21.67
2018-11-23T16:49:50.452Z,23.63
2018-11-23T16:54:53.157Z,27.43
2018-11-23T16:59:57.106Z,27.97
2018-11-23T17:04:59.399Z,26.60
2018-11-23T17:10:02.260Z,24.57
2018-11-23T17:15:05.877Z,25.23
2018-11-23T17:20:11.359Z,26.33
2018-11-23T17:25:15.175Z,24.77
2018-11-23T17:30:23.123Z,25.20
2018-11-23T17:35:25.604Z,25.17
2018-11-23T17:40:29.684Z,25.90
2018-11-23T17:45:32.553Z,27.00
2018-11-23T17:50:36.044Z,25.60
2018-11-23T17:55:38.439Z,24.87
2018-11-23T18:00:41.712Z,23.23
2018-11-23T18:05:44.067Z,23.77
2018-11-23T18:10:46.384Z,24.20
2018-11-23T18:15:48.784Z,24.23
2018-11-23T18:20:51.139Z,22.73
2018-11-23T18:25:53.527Z,24.83
2018-11-23T18:30:55.963Z,24.43
2018-11-23T18:35:58.504Z,22.00
2018-11-23T18:41:01.330Z,23.43
2018-11-23T18:46:03.776Z,23.10
2018-11-23T18:51:06.159Z,22.77
2018-11-23T18:56:09.474Z,22.93
2018-11-23T19:01:12.204Z,21.27
2018-11-23T19:06:14.522Z,21.30
2018-11-23T19:11:16.960Z,21.83
2018-11-23T19:16:19.264Z,20.63
2018-11-23T19:21:22.322Z,21.23
2018-11-23T19:26:24.725Z,22.87
2018-11-23T19:31:27.424Z,21.80
2018-11-23T19:36:29.962Z,22.33
2018-11-23T19:41:32.461Z,20.87
2018-11-23T19:46:34.805Z,21.90
2018-11-23T19:51:37.121Z,22.40
2018-11-23T19:56:39.452Z,22.40
2018-11-23T20:01:41.850Z,22.10
2018-11-23T20:06:44.600Z,22.70
2018-11-23T20:11:47.021Z,22.97
2018-11-23T20:16:49.420Z,23.37
2018-11-23T20:21:51.818Z,21.97
2018-11-23T20:26:54.460Z,21.30
2018-11-23T20:31:57.488Z,23.17
2018-11-23T20:37:00.011Z,24.00
2018-11-23T20:42:02.410Z,23.50
2018-11-23T20:47:05.121Z,23.23
2018-11-23T20:52:07.495Z,21.67
2018-11-23T20:57:09.836Z,21.73
2018-11-23T21:02:12.866Z,22.80
2018-11-23T21:07:15.284Z,22.83
2018-11-23T21:12:18.488Z,22.97
2018-11-23T21:17:20.850Z,22.53
2018-11-23T21:22:23.239Z,25.13
2018-11-23T21:27:25.535Z,23.50
2018-11-23T21:32:28.012Z,24.20
2018-11-23T21:37:30.482Z,22.57
2018-11-23T21:42:32.912Z,24.10
2018-11-23T21:47:35.290Z,23.93
2018-11-23T21:52:37.655Z,23.93
2018-11-23T21:57:39.997Z,23.43
2018-11-23T22:02:43.165Z,21.80
2018-11-23T22:07:45.656Z,24.80
2018-11-23T22:12:48.107Z,24.63
2018-11-23T22:17:51.841Z,21.20
2018-11-23T22:22:54.212Z,21.43
2018-11-23T22:27:56.664Z,22.53
2018-11-23T22:32:59.265Z,21.87
2018-11-23T22:38:01.628Z,22.57
2018-11-23T22:43:04.253Z,22.83
2018-11-23T22:48:06.870Z,23.17
2018-11-23T22:53:09.213Z,23.50
2018-11-23T22:58:11.626Z,22.57
2018-11-23T23:03:14.086Z,23.23
2018-11-23T23:08:16.437Z,22.03
2018-11-23T23:13:19.580Z,22.13
2018-11-23T23:18:22.057Z,20.93
2018-11-23T23:23:24.456Z,21.10
2018-11-23T23:28:27.460Z,21.10
2018-11-23T23:33:30.074Z,21.07
2018-11-23T23:38:32.448Z,21.90
2018-11-23T23:43:34.749Z,22.50
2018-11-23T23:48:37.140Z,20.17
2018-11-23T23:53:39.458Z,20.83
2018-11-23T23:58:41.798Z,21.10
